sensor_id;sensor_type;location;lat;lon;timestamp;P1;durP1;ratioP1;P2;durP2;ratioP2
76850;SDS011;65824;43.726;20.692;2023-02-12T00:01:18;122.00;;;53.40;;
76850;SDS011;65824;43.726;20.692;2023-02-12T00:03:44;107.65;;;48.42;;
76850;SDS011;65824;43.726;20.692;2023-02-12T00:06:11;84.78;;;39.85;;
76850;SDS011;65824;43.726;20.692;2023-02-12T00:08:38;73.20;;;38.25;;
76850;SDS011;65824;43.726;20.692;2023-02-12T00:11:08;83.85;;;38.55;;
76850;SDS011;65824;43.726;20.692;2023-02-12T00:13:36;81.57;;;40.00;;
76850;SDS011;65824;43.726;20.692;2023-02-12T00:16:05;84.32;;;40.58;;
76850;SDS011;65824;43.726;20.692;2023-02-12T00:18:33;80.10;;;39.58;;
76850;SDS011;65824;43.726;20.692;2023-02-12T00:20:59;82.13;;;40.60;;
76850;SDS011;65824;43.726;20.692;2023-02-12T00:23:25;90.35;;;43.63;;
76850;SDS011;65824;43.726;20.692;2023-02-12T00:25:52;113.57;;;52.30;;
76850;SDS011;65824;43.726;20.692;2023-02-12T00:28:34;125.13;;;57.50;;
76850;SDS011;65824;43.726;20.692;2023-02-12T00:31:04;142.68;;;60.95;;
76850;SDS011;65824;43.726;20.692;2023-02-12T00:33:30;127.40;;;56.85;;
76850;SDS011;65824;43.726;20.692;2023-02-12T00:35:56;111.40;;;51.60;;
76850;SDS011;65824;43.726;20.692;2023-02-12T00:38:22;113.00;;;48.60;;
76850;SDS011;65824;43.726;20.692;2023-02-12T00:40:48;110.07;;;49.90;;
76850;SDS011;65824;43.726;20.692;2023-02-12T00:43:14;100.25;;;47.28;;
76850;SDS011;65824;43.726;20.692;2023-02-12T00:45:39;95.45;;;46.67;;
76850;SDS011;65824;43.726;20.692;2023-02-12T00:48:05;99.78;;;46.17;;
76850;SDS011;65824;43.726;20.692;2023-02-12T00:50:32;109.13;;;51.08;;
76850;SDS011;65824;43.726;20.692;2023-02-12T00:52:57;113.57;;;49.33;;
76850;SDS011;65824;43.726;20.692;2023-02-12T00:55:23;97.07;;;46.03;;
76850;SDS011;65824;43.726;20.692;2023-02-12T00:57:49;103.00;;;46.72;;
76850;SDS011;65824;43.726;20.692;2023-02-12T01:00:15;92.38;;;42.13;;
76850;SDS011;65824;43.726;20.692;2023-02-12T01:02:41;79.35;;;36.80;;
76850;SDS011;65824;43.726;20.692;2023-02-12T01:05:07;72.45;;;34.85;;
76850;SDS011;65824;43.726;20.692;2023-02-12T01:07:32;69.55;;;31.58;;
76850;SDS011;65824;43.726;20.692;2023-02-12T01:09:57;64.60;;;29.25;;
76850;SDS011;65824;43.726;20.692;2023-02-12T01:12:23;62.50;;;28.45;;
76850;SDS011;65824;43.726;20.692;2023-02-12T01:14:48;60.30;;;29.40;;
76850;SDS011;65824;43.726;20.692;2023-02-12T01:17:16;62.00;;;29.15;;
76850;SDS011;65824;43.726;20.692;2023-02-12T01:19:42;61.75;;;31.02;;
76850;SDS011;65824;43.726;20.692;2023-02-12T01:22:07;67.38;;;31.25;;
76850;SDS011;65824;43.726;20.692;2023-02-12T01:24:34;66.72;;;31.30;;
76850;SDS011;65824;43.726;20.692;2023-02-12T01:27:00;64.07;;;32.28;;
76850;SDS011;65824;43.726;20.692;2023-02-12T01:29:28;62.75;;;32.17;;
76850;SDS011;65824;43.726;20.692;2023-02-12T01:31:53;63.53;;;31.35;;
76850;SDS011;65824;43.726;20.692;2023-02-12T01:34:19;65.55;;;31.58;;
76850;SDS011;65824;43.726;20.692;2023-02-12T01:36:44;68.57;;;31.80;;
76850;SDS011;65824;43.726;20.692;2023-02-12T01:39:10;66.07;;;31.92;;
76850;SDS011;65824;43.726;20.692;2023-02-12T01:41:38;61.38;;;29.30;;
76850;SDS011;65824;43.726;20.692;2023-02-12T01:44:14;63.25;;;32.65;;
76850;SDS011;65824;43.726;20.692;2023-02-12T01:46:42;69.15;;;32.17;;
76850;SDS011;65824;43.726;20.692;2023-02-12T01:49:11;68.72;;;32.78;;
76850;SDS011;65824;43.726;20.692;2023-02-12T01:51:43;68.00;;;30.90;;
76850;SDS011;65824;43.726;20.692;2023-02-12T01:54:11;70.90;;;30.40;;
76850;SDS011;65824;43.726;20.692;2023-02-12T01:56:37;58.15;;;32.33;;
76850;SDS011;65824;43.726;20.692;2023-02-12T01:59:03;63.20;;;31.83;;
76850;SDS011;65824;43.726;20.692;2023-02-12T02:01:30;67.20;;;32.95;;
76850;SDS011;65824;43.726;20.692;2023-02-12T02:04:02;73.20;;;34.55;;
76850;SDS011;65824;43.726;20.692;2023-02-12T02:06:33;68.90;;;33.83;;
76850;SDS011;65824;43.726;20.692;2023-02-12T02:09:02;73.43;;;32.97;;
76850;SDS011;65824;43.726;20.692;2023-02-12T02:11:31;68.80;;;33.08;;
76850;SDS011;65824;43.726;20.692;2023-02-12T02:14:15;67.72;;;32.63;;
76850;SDS011;65824;43.726;20.692;2023-02-12T02:17:05;67.45;;;33.53;;
76850;SDS011;65824;43.726;20.692;2023-02-12T02:30:31;72.60;;;33.50;;
76850;SDS011;65824;43.726;20.692;2023-02-12T02:33:10;73.38;;;35.63;;
76850;SDS011;65824;43.726;20.692;2023-02-12T02:38:54;74.20;;;35.17;;
76850;SDS011;65824;43.726;20.692;2023-02-12T02:41:17;86.45;;;38.50;;
76850;SDS011;65824;43.726;20.692;2023-02-12T02:43:49;80.75;;;34.75;;
76850;SDS011;65824;43.726;20.692;2023-02-12T02:49:36;67.63;;;33.50;;
76850;SDS011;65824;43.726;20.692;2023-02-12T02:52:05;71.50;;;33.63;;
76850;SDS011;65824;43.726;20.692;2023-02-12T02:54:53;68.15;;;33.80;;
76850;SDS011;65824;43.726;20.692;2023-02-12T03:00:00;66.88;;;33.10;;
76850;SDS011;65824;43.726;20.692;2023-02-12T03:02:36;70.18;;;32.33;;
76850;SDS011;65824;43.726;20.692;2023-02-12T03:05:04;62.45;;;30.50;;
76850;SDS011;65824;43.726;20.692;2023-02-12T03:07:43;64.63;;;28.75;;
76850;SDS011;65824;43.726;20.692;2023-02-12T03:10:16;63.25;;;29.52;;
76850;SDS011;65824;43.726;20.692;2023-02-12T03:12:54;60.72;;;29.45;;
76850;SDS011;65824;43.726;20.692;2023-02-12T03:15:36;60.05;;;29.17;;
76850;SDS011;65824;43.726;20.692;2023-02-12T03:18:04;63.55;;;31.23;;
76850;SDS011;65824;43.726;20.692;2023-02-12T03:20:44;64.32;;;31.25;;
76850;SDS011;65824;43.726;20.692;2023-02-12T03:23:13;64.70;;;30.30;;
76850;SDS011;65824;43.726;20.692;2023-02-12T03:25:49;62.08;;;30.05;;
76850;SDS011;65824;43.726;20.692;2023-02-12T03:28:33;61.60;;;28.30;;
76850;SDS011;65824;43.726;20.692;2023-02-12T03:31:09;62.03;;;30.60;;
76850;SDS011;65824;43.726;20.692;2023-02-12T03:36:29;62.78;;;31.90;;
76850;SDS011;65824;43.726;20.692;2023-02-12T03:39:02;60.97;;;31.95;;
76850;SDS011;65824;43.726;20.692;2023-02-12T03:41:57;72.30;;;33.30;;
76850;SDS011;65824;43.726;20.692;2023-02-12T03:48:12;67.50;;;32.67;;
76850;SDS011;65824;43.726;20.692;2023-02-12T03:52:40;61.85;;;31.30;;
76850;SDS011;65824;43.726;20.692;2023-02-12T03:55:07;59.10;;;30.70;;
76850;SDS011;65824;43.726;20.692;2023-02-12T03:57:39;61.80;;;29.63;;
76850;SDS011;65824;43.726;20.692;2023-02-12T04:00:11;59.60;;;29.38;;
76850;SDS011;65824;43.726;20.692;2023-02-12T04:02:48;53.95;;;27.40;;
76850;SDS011;65824;43.726;20.692;2023-02-12T04:05:18;52.53;;;26.33;;
76850;SDS011;65824;43.726;20.692;2023-02-12T04:07:47;54.00;;;23.45;;
76850;SDS011;65824;43.726;20.692;2023-02-12T04:10:13;50.15;;;25.02;;
76850;SDS011;65824;43.726;20.692;2023-02-12T04:12:51;49.33;;;22.85;;
76850;SDS011;65824;43.726;20.692;2023-02-12T04:15:30;39.72;;;20.83;;
76850;SDS011;65824;43.726;20.692;2023-02-12T04:18:22;40.92;;;20.25;;
76850;SDS011;65824;43.726;20.692;2023-02-12T04:29:41;30.73;;;14.80;;
76850;SDS011;65824;43.726;20.692;2023-02-12T04:37:38;28.45;;;14.77;;
76850;SDS011;65824;43.726;20.692;2023-02-12T04:40:13;30.15;;;15.77;;
76850;SDS011;65824;43.726;20.692;2023-02-12T04:42:45;30.05;;;14.98;;
76850;SDS011;65824;43.726;20.692;2023-02-12T04:47:39;29.35;;;14.60;;
76850;SDS011;65824;43.726;20.692;2023-02-12T04:50:05;33.40;;;16.63;;
76850;SDS011;65824;43.726;20.692;2023-02-12T04:52:31;33.92;;;17.33;;
76850;SDS011;65824;43.726;20.692;2023-02-12T04:54:56;35.83;;;18.08;;
76850;SDS011;65824;43.726;20.692;2023-02-12T04:57:23;35.10;;;18.08;;
76850;SDS011;65824;43.726;20.692;2023-02-12T04:59:48;37.10;;;18.27;;
76850;SDS011;65824;43.726;20.692;2023-02-12T05:02:14;36.45;;;18.90;;
76850;SDS011;65824;43.726;20.692;2023-02-12T05:04:41;37.75;;;19.75;;
76850;SDS011;65824;43.726;20.692;2023-02-12T05:07:09;37.97;;;19.27;;
76850;SDS011;65824;43.726;20.692;2023-02-12T05:09:35;41.13;;;20.73;;
76850;SDS011;65824;43.726;20.692;2023-02-12T05:12:00;38.38;;;19.25;;
76850;SDS011;65824;43.726;20.692;2023-02-12T05:14:28;41.55;;;20.63;;
76850;SDS011;65824;43.726;20.692;2023-02-12T05:16:54;37.92;;;18.42;;
76850;SDS011;65824;43.726;20.692;2023-02-12T05:19:20;35.63;;;19.00;;
76850;SDS011;65824;43.726;20.692;2023-02-12T05:21:48;36.47;;;20.10;;
76850;SDS011;65824;43.726;20.692;2023-02-12T05:24:14;37.05;;;19.92;;
76850;SDS011;65824;43.726;20.692;2023-02-12T05:26:39;38.28;;;19.55;;
76850;SDS011;65824;43.726;20.692;2023-02-12T05:29:05;38.03;;;19.15;;
76850;SDS011;65824;43.726;20.692;2023-02-12T05:31:32;34.40;;;17.70;;
76850;SDS011;65824;43.726;20.692;2023-02-12T05:33:57;34.42;;;18.02;;
76850;SDS011;65824;43.726;20.692;2023-02-12T05:36:22;34.45;;;17.65;;
76850;SDS011;65824;43.726;20.692;2023-02-12T05:38:49;34.65;;;17.08;;
76850;SDS011;65824;43.726;20.692;2023-02-12T05:41:19;34.53;;;16.98;;
76850;SDS011;65824;43.726;20.692;2023-02-12T05:43:46;32.83;;;17.35;;
76850;SDS011;65824;43.726;20.692;2023-02-12T05:46:13;33.63;;;17.63;;
76850;SDS011;65824;43.726;20.692;2023-02-12T05:48:39;35.20;;;16.95;;
76850;SDS011;65824;43.726;20.692;2023-02-12T05:51:11;36.20;;;17.48;;
76850;SDS011;65824;43.726;20.692;2023-02-12T05:53:40;40.65;;;18.83;;
76850;SDS011;65824;43.726;20.692;2023-02-12T05:58:41;41.17;;;20.35;;
76850;SDS011;65824;43.726;20.692;2023-02-12T06:01:15;41.67;;;19.70;;
76850;SDS011;65824;43.726;20.692;2023-02-12T06:03:44;44.63;;;20.52;;
76850;SDS011;65824;43.726;20.692;2023-02-12T06:06:10;41.17;;;20.20;;
76850;SDS011;65824;43.726;20.692;2023-02-12T06:08:36;37.10;;;19.73;;
76850;SDS011;65824;43.726;20.692;2023-02-12T06:11:03;39.13;;;19.25;;
76850;SDS011;65824;43.726;20.692;2023-02-12T06:13:32;38.90;;;19.88;;
76850;SDS011;65824;43.726;20.692;2023-02-12T06:15:57;41.03;;;21.30;;
76850;SDS011;65824;43.726;20.692;2023-02-12T06:18:23;35.70;;;18.83;;
76850;SDS011;65824;43.726;20.692;2023-02-12T06:20:51;33.88;;;17.90;;
76850;SDS011;65824;43.726;20.692;2023-02-12T06:23:20;34.53;;;17.17;;
76850;SDS011;65824;43.726;20.692;2023-02-12T06:25:47;32.25;;;16.48;;
76850;SDS011;65824;43.726;20.692;2023-02-12T06:28:13;30.13;;;15.48;;
76850;SDS011;65824;43.726;20.692;2023-02-12T06:30:38;37.40;;;17.20;;
76850;SDS011;65824;43.726;20.692;2023-02-12T06:33:04;34.85;;;16.35;;
76850;SDS011;65824;43.726;20.692;2023-02-12T06:35:29;38.33;;;17.25;;
76850;SDS011;65824;43.726;20.692;2023-02-12T06:37:58;32.10;;;16.23;;
76850;SDS011;65824;43.726;20.692;2023-02-12T06:40:23;32.33;;;15.90;;
76850;SDS011;65824;43.726;20.692;2023-02-12T06:42:49;33.00;;;16.02;;
76850;SDS011;65824;43.726;20.692;2023-02-12T06:45:15;28.60;;;15.05;;
76850;SDS011;65824;43.726;20.692;2023-02-12T06:47:41;32.33;;;15.75;;
76850;SDS011;65824;43.726;20.692;2023-02-12T06:50:06;30.27;;;13.90;;
76850;SDS011;65824;43.726;20.692;2023-02-12T06:52:32;30.48;;;15.30;;
76850;SDS011;65824;43.726;20.692;2023-02-12T06:54:57;30.13;;;14.45;;
76850;SDS011;65824;43.726;20.692;2023-02-12T06:57:24;33.55;;;15.80;;
76850;SDS011;65824;43.726;20.692;2023-02-12T06:59:49;33.28;;;15.48;;
76850;SDS011;65824;43.726;20.692;2023-02-12T07:02:15;32.65;;;15.75;;
76850;SDS011;65824;43.726;20.692;2023-02-12T07:04:43;33.80;;;16.05;;
76850;SDS011;65824;43.726;20.692;2023-02-12T07:07:08;29.20;;;14.85;;
76850;SDS011;65824;43.726;20.692;2023-02-12T07:09:34;34.75;;;14.88;;
76850;SDS011;65824;43.726;20.692;2023-02-12T07:12:00;30.80;;;16.63;;
76850;SDS011;65824;43.726;20.692;2023-02-12T07:14:25;31.35;;;16.00;;
76850;SDS011;65824;43.726;20.692;2023-02-12T07:16:52;32.60;;;16.33;;
76850;SDS011;65824;43.726;20.692;2023-02-12T07:19:19;34.42;;;17.77;;
76850;SDS011;65824;43.726;20.692;2023-02-12T07:21:46;36.17;;;16.88;;
76850;SDS011;65824;43.726;20.692;2023-02-12T07:24:11;32.72;;;16.17;;
76850;SDS011;65824;43.726;20.692;2023-02-12T07:26:38;29.42;;;15.52;;
76850;SDS011;65824;43.726;20.692;2023-02-12T07:29:04;30.05;;;15.00;;
76850;SDS011;65824;43.726;20.692;2023-02-12T07:31:30;31.52;;;15.57;;
76850;SDS011;65824;43.726;20.692;2023-02-12T07:33:56;32.88;;;15.98;;
76850;SDS011;65824;43.726;20.692;2023-02-12T07:36:23;32.65;;;16.02;;
76850;SDS011;65824;43.726;20.692;2023-02-12T07:38:50;32.25;;;15.85;;
76850;SDS011;65824;43.726;20.692;2023-02-12T07:41:18;30.60;;;16.08;;
76850;SDS011;65824;43.726;20.692;2023-02-12T07:43:55;30.65;;;14.75;;
76850;SDS011;65824;43.726;20.692;2023-02-12T07:46:26;29.88;;;14.77;;
76850;SDS011;65824;43.726;20.692;2023-02-12T07:48:54;30.27;;;15.65;;
76850;SDS011;65824;43.726;20.692;2023-02-12T07:51:21;26.55;;;14.60;;
76850;SDS011;65824;43.726;20.692;2023-02-12T07:53:48;29.83;;;15.20;;
76850;SDS011;65824;43.726;20.692;2023-02-12T07:58:47;31.13;;;15.48;;
76850;SDS011;65824;43.726;20.692;2023-02-12T08:01:20;32.22;;;16.23;;
76850;SDS011;65824;43.726;20.692;2023-02-12T08:04:01;42.53;;;21.25;;
76850;SDS011;65824;43.726;20.692;2023-02-12T08:06:48;42.92;;;22.05;;
76850;SDS011;65824;43.726;20.692;2023-02-12T08:09:20;47.78;;;24.38;;
76850;SDS011;65824;43.726;20.692;2023-02-12T08:11:48;44.42;;;22.98;;
76850;SDS011;65824;43.726;20.692;2023-02-12T08:14:14;41.55;;;21.65;;
76850;SDS011;65824;43.726;20.692;2023-02-12T08:16:44;39.95;;;21.85;;
76850;SDS011;65824;43.726;20.692;2023-02-12T08:19:10;40.55;;;21.95;;
76850;SDS011;65824;43.726;20.692;2023-02-12T08:21:36;41.22;;;21.60;;
76850;SDS011;65824;43.726;20.692;2023-02-12T08:24:02;44.38;;;21.98;;
76850;SDS011;65824;43.726;20.692;2023-02-12T08:26:29;43.33;;;21.85;;
76850;SDS011;65824;43.726;20.692;2023-02-12T08:28:58;43.58;;;22.70;;
76850;SDS011;65824;43.726;20.692;2023-02-12T08:31:28;43.65;;;22.65;;
76850;SDS011;65824;43.726;20.692;2023-02-12T08:33:56;45.95;;;23.27;;
76850;SDS011;65824;43.726;20.692;2023-02-12T08:36:23;44.95;;;22.20;;
76850;SDS011;65824;43.726;20.692;2023-02-12T08:38:50;41.85;;;22.80;;
76850;SDS011;65824;43.726;20.692;2023-02-12T08:41:17;39.92;;;19.80;;
76850;SDS011;65824;43.726;20.692;2023-02-12T08:43:48;40.92;;;21.90;;
76850;SDS011;65824;43.726;20.692;2023-02-12T08:46:20;43.92;;;21.77;;
76850;SDS011;65824;43.726;20.692;2023-02-12T08:48:47;43.22;;;22.80;;
76850;SDS011;65824;43.726;20.692;2023-02-12T08:51:14;41.47;;;22.27;;
76850;SDS011;65824;43.726;20.692;2023-02-12T08:53:42;40.40;;;21.55;;
76850;SDS011;65824;43.726;20.692;2023-02-12T08:56:09;39.45;;;20.60;;
76850;SDS011;65824;43.726;20.692;2023-02-12T08:58:37;39.13;;;21.60;;
76850;SDS011;65824;43.726;20.692;2023-02-12T09:01:03;40.70;;;21.25;;
76850;SDS011;65824;43.726;20.692;2023-02-12T09:03:30;45.53;;;21.33;;
76850;SDS011;65824;43.726;20.692;2023-02-12T09:05:56;41.92;;;21.20;;
76850;SDS011;65824;43.726;20.692;2023-02-12T09:08:21;47.90;;;23.67;;
76850;SDS011;65824;43.726;20.692;2023-02-12T09:10:47;45.58;;;25.45;;
76850;SDS011;65824;43.726;20.692;2023-02-12T09:13:13;48.95;;;26.40;;
76850;SDS011;65824;43.726;20.692;2023-02-12T09:15:43;53.78;;;29.08;;
76850;SDS011;65824;43.726;20.692;2023-02-12T09:18:11;50.55;;;27.80;;
76850;SDS011;65824;43.726;20.692;2023-02-12T09:20:39;49.53;;;25.83;;
76850;SDS011;65824;43.726;20.692;2023-02-12T09:23:06;52.05;;;26.65;;
76850;SDS011;65824;43.726;20.692;2023-02-12T09:25:34;52.35;;;25.23;;
76850;SDS011;65824;43.726;20.692;2023-02-12T09:28:00;44.25;;;23.73;;
76850;SDS011;65824;43.726;20.692;2023-02-12T09:30:26;44.40;;;22.52;;
76850;SDS011;65824;43.726;20.692;2023-02-12T09:32:51;45.83;;;24.10;;
76850;SDS011;65824;43.726;20.692;2023-02-12T09:35:17;47.25;;;22.85;;
76850;SDS011;65824;43.726;20.692;2023-02-12T09:37:43;44.53;;;23.10;;
76850;SDS011;65824;43.726;20.692;2023-02-12T09:40:10;47.90;;;23.35;;
76850;SDS011;65824;43.726;20.692;2023-02-12T09:45:29;50.85;;;26.35;;
76850;SDS011;65824;43.726;20.692;2023-02-12T09:50:55;59.67;;;30.65;;
76850;SDS011;65824;43.726;20.692;2023-02-12T09:53:23;54.90;;;28.92;;
76850;SDS011;65824;43.726;20.692;2023-02-12T09:55:52;50.75;;;27.73;;
76850;SDS011;65824;43.726;20.692;2023-02-12T10:01:09;41.78;;;23.75;;
76850;SDS011;65824;43.726;20.692;2023-02-12T10:03:39;45.65;;;22.60;;
76850;SDS011;65824;43.726;20.692;2023-02-12T10:06:16;44.08;;;23.77;;
76850;SDS011;65824;43.726;20.692;2023-02-12T10:25:47;32.72;;;17.15;;
76850;SDS011;65824;43.726;20.692;2023-02-12T10:33:50;44.08;;;22.17;;
76850;SDS011;65824;43.726;20.692;2023-02-12T10:39:12;44.50;;;23.67;;
76850;SDS011;65824;43.726;20.692;2023-02-12T10:41:48;46.58;;;22.92;;
76850;SDS011;65824;43.726;20.692;2023-02-12T10:44:29;47.50;;;22.63;;
76850;SDS011;65824;43.726;20.692;2023-02-12T10:46:57;45.90;;;23.83;;
76850;SDS011;65824;43.726;20.692;2023-02-12T10:49:23;47.78;;;23.10;;
76850;SDS011;65824;43.726;20.692;2023-02-12T10:51:57;43.92;;;22.73;;
76850;SDS011;65824;43.726;20.692;2023-02-12T10:54:36;44.38;;;23.05;;
76850;SDS011;65824;43.726;20.692;2023-02-12T11:00:43;43.30;;;20.90;;
76850;SDS011;65824;43.726;20.692;2023-02-12T11:05:33;46.95;;;22.27;;
76850;SDS011;65824;43.726;20.692;2023-02-12T11:07:59;45.55;;;22.60;;
76850;SDS011;65824;43.726;20.692;2023-02-12T11:10:29;46.97;;;21.23;;
76850;SDS011;65824;43.726;20.692;2023-02-12T11:13:00;47.85;;;20.95;;
76850;SDS011;65824;43.726;20.692;2023-02-12T11:15:29;46.20;;;21.55;;
76850;SDS011;65824;43.726;20.692;2023-02-12T11:18:02;49.17;;;22.38;;
76850;SDS011;65824;43.726;20.692;2023-02-12T11:20:33;46.83;;;23.27;;
76850;SDS011;65824;43.726;20.692;2023-02-12T11:28:54;59.40;;;28.10;;
76850;SDS011;65824;43.726;20.692;2023-02-12T11:31:23;56.20;;;25.52;;
76850;SDS011;65824;43.726;20.692;2023-02-12T11:36:40;52.85;;;26.40;;
76850;SDS011;65824;43.726;20.692;2023-02-12T11:39:52;54.63;;;26.77;;
76850;SDS011;65824;43.726;20.692;2023-02-12T11:44:37;48.33;;;23.58;;
76850;SDS011;65824;43.726;20.692;2023-02-12T11:47:05;49.13;;;25.95;;
76850;SDS011;65824;43.726;20.692;2023-02-12T11:49:53;51.38;;;25.40;;
76850;SDS011;65824;43.726;20.692;2023-02-12T11:52:30;49.20;;;26.23;;
76850;SDS011;65824;43.726;20.692;2023-02-12T11:54:58;49.65;;;25.52;;
76850;SDS011;65824;43.726;20.692;2023-02-12T11:57:38;47.40;;;23.35;;
76850;SDS011;65824;43.726;20.692;2023-02-12T12:02:39;42.63;;;22.02;;
76850;SDS011;65824;43.726;20.692;2023-02-12T12:05:12;49.67;;;23.95;;
76850;SDS011;65824;43.726;20.692;2023-02-12T12:07:42;44.90;;;22.23;;
76850;SDS011;65824;43.726;20.692;2023-02-12T12:13:15;40.80;;;22.42;;
76850;SDS011;65824;43.726;20.692;2023-02-12T12:15:47;44.97;;;24.00;;
76850;SDS011;65824;43.726;20.692;2023-02-12T12:18:53;48.72;;;23.77;;
76850;SDS011;65824;43.726;20.692;2023-02-12T12:21:59;46.13;;;21.98;;
76850;SDS011;65824;43.726;20.692;2023-02-12T12:24:39;47.40;;;21.70;;
76850;SDS011;65824;43.726;20.692;2023-02-12T12:29:56;43.75;;;21.25;;
76850;SDS011;65824;43.726;20.692;2023-02-12T12:32:26;46.72;;;22.98;;
76850;SDS011;65824;43.726;20.692;2023-02-12T12:34:53;47.40;;;23.63;;
76850;SDS011;65824;43.726;20.692;2023-02-12T12:45:32;44.70;;;22.95;;
76850;SDS011;65824;43.726;20.692;2023-02-12T12:55:07;44.80;;;22.25;;
76850;SDS011;65824;43.726;20.692;2023-02-12T12:57:05;43.13;;;21.77;;
76850;SDS011;65824;43.726;20.692;2023-02-12T13:13:25;43.72;;;22.75;;
76850;SDS011;65824;43.726;20.692;2023-02-12T13:19:07;50.05;;;25.25;;
76850;SDS011;65824;43.726;20.692;2023-02-12T13:22:03;42.40;;;23.25;;
76850;SDS011;65824;43.726;20.692;2023-02-12T13:27:27;47.45;;;23.73;;
76850;SDS011;65824;43.726;20.692;2023-02-12T13:32:44;42.45;;;23.00;;
76850;SDS011;65824;43.726;20.692;2023-02-12T13:35:14;44.03;;;23.27;;
76850;SDS011;65824;43.726;20.692;2023-02-12T13:40:13;46.13;;;22.08;;
76850;SDS011;65824;43.726;20.692;2023-02-12T13:58:58;45.33;;;22.77;;
76850;SDS011;65824;43.726;20.692;2023-02-12T14:01:41;47.38;;;24.25;;
76850;SDS011;65824;43.726;20.692;2023-02-12T14:04:19;48.47;;;24.38;;
76850;SDS011;65824;43.726;20.692;2023-02-12T14:07:09;46.40;;;24.10;;
76850;SDS011;65824;43.726;20.692;2023-02-12T14:12:03;44.67;;;21.55;;
76850;SDS011;65824;43.726;20.692;2023-02-12T14:14:35;46.20;;;21.48;;
76850;SDS011;65824;43.726;20.692;2023-02-12T14:28:27;46.80;;;24.02;;
76850;SDS011;65824;43.726;20.692;2023-02-12T14:39:02;46.40;;;23.45;;
76850;SDS011;65824;43.726;20.692;2023-02-12T14:41:37;41.72;;;22.20;;
76850;SDS011;65824;43.726;20.692;2023-02-12T14:52:01;44.05;;;23.15;;
76850;SDS011;65824;43.726;20.692;2023-02-12T15:02:31;49.47;;;26.50;;
76850;SDS011;65824;43.726;20.692;2023-02-12T15:05:00;50.40;;;27.63;;
76850;SDS011;65824;43.726;20.692;2023-02-12T15:10:30;47.28;;;25.70;;
76850;SDS011;65824;43.726;20.692;2023-02-12T15:13:07;50.05;;;26.80;;
76850;SDS011;65824;43.726;20.692;2023-02-12T15:15:38;49.70;;;24.73;;
76850;SDS011;65824;43.726;20.692;2023-02-12T15:18:17;48.28;;;25.83;;
76850;SDS011;65824;43.726;20.692;2023-02-12T15:23:47;51.17;;;27.60;;
76850;SDS011;65824;43.726;20.692;2023-02-12T15:26:24;48.40;;;27.08;;
76850;SDS011;65824;43.726;20.692;2023-02-12T15:28:51;50.08;;;27.17;;
76850;SDS011;65824;43.726;20.692;2023-02-12T15:31:19;52.95;;;28.15;;
76850;SDS011;65824;43.726;20.692;2023-02-12T15:33:48;52.80;;;27.20;;
76850;SDS011;65824;43.726;20.692;2023-02-12T15:36:20;55.70;;;29.30;;
76850;SDS011;65824;43.726;20.692;2023-02-12T15:38:48;59.38;;;30.30;;
76850;SDS011;65824;43.726;20.692;2023-02-12T15:41:27;59.22;;;31.90;;
76850;SDS011;65824;43.726;20.692;2023-02-12T15:44:17;65.05;;;33.80;;
76850;SDS011;65824;43.726;20.692;2023-02-12T15:46:56;71.00;;;33.83;;
76850;SDS011;65824;43.726;20.692;2023-02-12T15:49:29;65.57;;;32.92;;
76850;SDS011;65824;43.726;20.692;2023-02-12T15:52:18;68.15;;;34.05;;
76850;SDS011;65824;43.726;20.692;2023-02-12T15:54:58;67.47;;;35.78;;
76850;SDS011;65824;43.726;20.692;2023-02-12T15:57:26;66.05;;;34.67;;
76850;SDS011;65824;43.726;20.692;2023-02-12T15:59:54;67.78;;;34.67;;
76850;SDS011;65824;43.726;20.692;2023-02-12T16:02:28;69.90;;;36.65;;
76850;SDS011;65824;43.726;20.692;2023-02-12T16:04:55;74.25;;;37.72;;
76850;SDS011;65824;43.726;20.692;2023-02-12T16:07:22;71.45;;;37.35;;
76850;SDS011;65824;43.726;20.692;2023-02-12T16:09:49;68.75;;;34.42;;
76850;SDS011;65824;43.726;20.692;2023-02-12T16:12:16;73.45;;;37.53;;
76850;SDS011;65824;43.726;20.692;2023-02-12T16:14:46;69.22;;;36.13;;
76850;SDS011;65824;43.726;20.692;2023-02-12T16:17:26;69.20;;;35.97;;
76850;SDS011;65824;43.726;20.692;2023-02-12T16:22:43;69.78;;;35.42;;
76850;SDS011;65824;43.726;20.692;2023-02-12T16:25:13;77.05;;;36.88;;
76850;SDS011;65824;43.726;20.692;2023-02-12T16:27:42;73.97;;;37.95;;
76850;SDS011;65824;43.726;20.692;2023-02-12T16:30:26;73.78;;;36.25;;
76850;SDS011;65824;43.726;20.692;2023-02-12T16:32:55;73.28;;;36.55;;
76850;SDS011;65824;43.726;20.692;2023-02-12T16:37:57;72.45;;;37.70;;
76850;SDS011;65824;43.726;20.692;2023-02-12T16:40:29;73.60;;;37.08;;
76850;SDS011;65824;43.726;20.692;2023-02-12T16:43:00;77.90;;;39.45;;
76850;SDS011;65824;43.726;20.692;2023-02-12T16:50:37;77.72;;;39.95;;
76850;SDS011;65824;43.726;20.692;2023-02-12T16:56:10;73.75;;;36.38;;
76850;SDS011;65824;43.726;20.692;2023-02-12T16:58:42;76.47;;;38.65;;
76850;SDS011;65824;43.726;20.692;2023-02-12T17:01:08;79.25;;;38.67;;
76850;SDS011;65824;43.726;20.692;2023-02-12T17:03:33;81.53;;;40.40;;
76850;SDS011;65824;43.726;20.692;2023-02-12T17:05:59;79.93;;;42.58;;
76850;SDS011;65824;43.726;20.692;2023-02-12T17:08:28;78.80;;;40.60;;
76850;SDS011;65824;43.726;20.692;2023-02-12T17:10:55;89.00;;;43.38;;
76850;SDS011;65824;43.726;20.692;2023-02-12T17:13:21;79.75;;;42.38;;
76850;SDS011;65824;43.726;20.692;2023-02-12T17:15:57;82.22;;;43.17;;
76850;SDS011;65824;43.726;20.692;2023-02-12T17:18:25;83.45;;;43.55;;
76850;SDS011;65824;43.726;20.692;2023-02-12T17:20:55;86.30;;;44.15;;
76850;SDS011;65824;43.726;20.692;2023-02-12T17:23:21;88.15;;;44.70;;
76850;SDS011;65824;43.726;20.692;2023-02-12T17:25:49;88.07;;;44.92;;
76850;SDS011;65824;43.726;20.692;2023-02-12T17:28:15;82.75;;;42.30;;
76850;SDS011;65824;43.726;20.692;2023-02-12T17:30:40;77.97;;;38.17;;
76850;SDS011;65824;43.726;20.692;2023-02-12T17:33:12;68.78;;;35.55;;
76850;SDS011;65824;43.726;20.692;2023-02-12T17:35:38;61.30;;;33.38;;
76850;SDS011;65824;43.726;20.692;2023-02-12T17:38:03;61.92;;;32.30;;
76850;SDS011;65824;43.726;20.692;2023-02-12T17:40:33;53.92;;;30.58;;
76850;SDS011;65824;43.726;20.692;2023-02-12T17:43:03;54.53;;;30.00;;
76850;SDS011;65824;43.726;20.692;2023-02-12T17:45:29;60.75;;;29.58;;
76850;SDS011;65824;43.726;20.692;2023-02-12T17:47:54;59.67;;;31.42;;
76850;SDS011;65824;43.726;20.692;2023-02-12T17:50:22;65.32;;;32.58;;
76850;SDS011;65824;43.726;20.692;2023-02-12T17:52:54;66.78;;;33.08;;
76850;SDS011;65824;43.726;20.692;2023-02-12T17:57:50;74.88;;;35.88;;
76850;SDS011;65824;43.726;20.692;2023-02-12T18:00:17;70.68;;;35.67;;
76850;SDS011;65824;43.726;20.692;2023-02-12T18:02:46;88.22;;;42.10;;
76850;SDS011;65824;43.726;20.692;2023-02-12T18:05:13;121.53;;;51.45;;
76850;SDS011;65824;43.726;20.692;2023-02-12T18:07:39;127.55;;;54.92;;
76850;SDS011;65824;43.726;20.692;2023-02-12T18:10:05;143.18;;;59.60;;